Ana Sayfa
METAR-TAF:

METAR-TAF

Havaalanları :

Weipa, Avustralya

Enlem: 12-40-43S, Boylam: 141-55-31E, yükseklik: 19 m

Güncel hava durumu gözlemi

Rapor saat 13:00 UTC de 59 dakika önce yapıldı.
Rüzgar kuzeydoğudan 6 kt
Sıcaklık 26°C
Nem 94%
Basınç 1008 hPa
Görüş mesafesi 10 km veya daha fazla
1900 ft yükseklikte parçalı bulutlu
2900 ft yükseklikte parçalı çok bulutlu
3500 ft yükseklikte çok bulutlu

METAR: YBWP 241300Z AUTO 05006KT 9999 // SCT019 BKN029 OVC035 26/25 Q1008

Saat: 23:59 (13:59 UTC)


TAF: eksik

4.000'den fazla havaalanı için hava durumu gözlemleri ve tahminleri (METAR ve TAF raporları).

Kullanılabilir istasyonlar harita üzerinde sarı ve kırmızı noktalarla gösterilir.

İstasyonun adını görmek için fareyi noktanın üzerinde gezdirin.

Sonrasında hava gözlem ve tahminlerini görmek için tıklayın.

Haritayı değiştirmek için: yaklaştırmak için siyah artı işaretli yeşil düğmeye ve uzaklaştırmak için de eksi işaretli düğmeye hızla tıklayın; bitişik haritalar için yeşil okları kullanın.


METAR-TAF: